Time;durP1;ratioP1;P1;durP2;ratioP2;P2;SDS_P1;SDS_P2;PMS_P1;PMS_P2;Temp;Humidity;BMP_temperature;BMP_pressure;BME280_temperature;BME280_humidity;BME280_pressure;Samples;Min_cycle;Max_cycle;Signal;HPM_P1;HPM_P2
2021/11/12 00:13:07;;;;;;;33.57;12.10;;;4.50;99.90;;;;;;4987821;28;20037;-71
2021/11/12 00:15:35;;;;;;;;;;;4.50;99.90;;;;;;4988825;28;20015;-71
2021/11/12 00:18:01;;;;;;;33.20;11.27;;;4.50;99.90;;;;;;4989283;28;19905;-71
2021/11/12 00:20:27;;;;;;;32.67;11.57;;;4.50;99.90;;;;;;4991458;28;20117;-68
2021/11/12 00:22:53;;;;;;;34.50;12.00;;;4.50;99.90;;;;;;4995529;28;20106;-69
2021/11/12 00:25:19;;;;;;;33.90;12.13;;;4.50;99.90;;;;;;4993917;28;20371;-69
2021/11/12 00:27:46;;;;;;;29.73;11.10;;;4.40;99.90;;;;;;4995304;28;20380;-69
2021/11/12 00:36:00;;;;;;;33.70;12.07;;;4.40;99.90;;;;;;4999237;28;20038;-68
2021/11/12 00:38:31;;;;;;;30.50;10.93;;;4.40;99.90;;;;;;4996670;28;20030;-68
2021/11/12 00:41:11;;;;;;;33.33;11.13;;;4.40;99.90;;;;;;5011671;28;20023;-68
2021/11/12 00:43:43;;;;;;;28.87;10.43;;;4.40;99.90;;;;;;5011583;28;20064;-68
2021/11/12 00:48:56;;;;;;;29.07;10.37;;;4.40;99.90;;;;;;4996145;28;20255;-68
2021/11/12 00:53:52;;;;;;;33.50;12.13;;;4.30;99.90;;;;;;4996351;28;20080;-68
2021/11/12 00:56:20;;;;;;;35.07;12.70;;;4.40;99.90;;;;;;5010830;28;20069;-68
2021/11/12 00:58:46;;;;;;;24.33;10.87;;;4.40;99.90;;;;;;4996133;28;20061;-67
2021/11/12 01:01:12;;;;;;;27.93;10.60;;;4.40;99.90;;;;;;4995048;28;20050;-68
2021/11/12 01:03:38;;;;;;;28.50;10.57;;;4.40;99.90;;;;;;5011215;28;20023;-68
2021/11/12 01:06:04;;;;;;;32.93;11.67;;;4.40;99.90;;;;;;4995383;28;20038;-68
2021/11/12 01:08:30;;;;;;;25.50;10.50;;;4.40;99.90;;;;;;5011364;28;20032;-68
2021/11/12 01:10:56;;;;;;;27.83;10.43;;;4.40;99.90;;;;;;5011102;28;20022;-68
2021/11/12 01:13:23;;;;;;;27.73;10.60;;;4.40;99.90;;;;;;5010463;28;20049;-68
2021/11/12 01:15:48;;;;;;;27.37;10.10;;;4.40;99.90;;;;;;5011253;28;20022;-68
2021/11/12 01:18:14;;;;;;;23.73;9.60;;;4.40;99.90;;;;;;4995317;28;20094;-68
2021/11/12 01:20:40;;;;;;;27.20;10.10;;;4.30;99.90;;;;;;5010939;28;20414;-68
2021/11/12 01:23:06;;;;;;;28.03;10.23;;;4.30;99.90;;;;;;4995142;28;20034;-68
2021/11/12 01:25:32;;;;;;;24.90;10.53;;;4.30;99.90;;;;;;4995866;28;20348;-68
2021/11/12 01:27:58;;;;;;;27.53;10.80;;;4.20;99.90;;;;;;5010490;28;20459;-68
2021/11/12 01:30:23;;;;;;;22.57;10.17;;;4.20;99.90;;;;;;5009746;28;20069;-68
2021/11/12 01:32:50;;;;;;;25.07;10.17;;;4.20;99.90;;;;;;5010780;28;20447;-68
2021/11/12 01:35:17;;;;;;;26.53;10.40;;;4.30;99.90;;;;;;5010158;28;20057;-68
2021/11/12 01:37:45;;;;;;;27.60;10.27;;;4.30;99.90;;;;;;4995741;28;20109;-68
2021/11/12 01:40:19;;;;;;;28.47;10.90;;;4.30;99.90;;;;;;5010041;28;20061;-68
2021/11/12 01:43:35;;;;;;;27.60;10.30;;;4.20;99.90;;;;;;4995421;28;20089;-68
2021/11/12 01:48:59;;;;;;;27.13;10.77;;;4.30;99.90;;;;;;4995376;28;20089;-68
2021/11/12 02:01:48;;;;;;;25.80;9.97;;;4.20;99.90;;;;;;4994757;28;20034;-68
2021/11/12 02:04:17;;;;;;;27.57;9.57;;;4.20;99.90;;;;;;5009634;28;20113;-68
2021/11/12 02:06:44;;;;;;;23.87;9.63;;;4.10;99.90;;;;;;5010008;28;20464;-68
2021/11/12 02:11:43;;;;;;;25.27;9.80;;;4.20;99.90;;;;;;4994726;28;20058;-68
2021/11/12 02:14:10;;;;;;;24.40;9.60;;;4.20;99.90;;;;;;4994252;28;20340;-68
2021/11/12 02:16:40;;;;;;;27.03;10.00;;;4.10;99.90;;;;;;5009844;28;20050;-68
2021/11/12 02:19:07;;;;;;;28.57;10.33;;;4.10;99.90;;;;;;5009783;28;20113;-70
2021/11/12 02:21:41;;;;;;;19.80;8.70;;;4.10;99.90;;;;;;5009996;28;20037;-68
2021/11/12 02:24:11;;;;;;;28.17;9.87;;;4.10;99.90;;;;;;4994104;28;20018;-70
2021/11/12 02:26:47;;;;;;;22.20;8.60;;;4.10;99.90;;;;;;4994687;28;20029;-68
2021/11/12 02:29:15;;;;;;;25.50;9.67;;;4.10;99.90;;;;;;5009222;28;20026;-68
2021/11/12 02:31:41;;;;;;;23.93;9.13;;;4.20;99.90;;;;;;4994445;28;20066;-68
2021/11/12 02:34:09;;;;;;;24.10;10.47;;;4.10;99.90;;;;;;5009654;28;20030;-68
2021/11/12 02:36:36;;;;;;;22.30;8.43;;;4.10;99.90;;;;;;4994484;28;20341;-67
2021/11/12 02:39:05;;;;;;;25.73;9.83;;;4.20;99.90;;;;;;4994431;28;20014;-67
2021/11/12 02:41:32;;;;;;;24.00;8.97;;;4.20;99.90;;;;;;5007900;28;20210;-67
2021/11/12 02:43:58;;;;;;;26.10;8.83;;;4.20;99.90;;;;;;4994314;28;20026;-67
2021/11/12 02:46:25;;;;;;;23.83;9.73;;;4.20;99.90;;;;;;5008622;28;20372;-68
2021/11/12 02:48:52;;;;;;;25.23;9.53;;;4.20;99.90;;;;;;4994187;28;20025;-68
2021/11/12 02:51:24;;;;;;;23.20;9.47;;;4.20;99.90;;;;;;4993307;28;20061;-67
2021/11/12 02:53:50;;;;;;;22.23;9.23;;;4.20;99.90;;;;;;4994112;28;20018;-67
2021/11/12 02:56:26;;;;;;;25.10;9.27;;;4.10;99.90;;;;;;4993478;28;20037;-68
2021/11/12 02:58:54;;;;;;;26.97;9.60;;;4.10;99.90;;;;;;5009315;28;20022;-68
2021/11/12 03:01:22;;;;;;;24.93;9.63;;;4.10;99.90;;;;;;4993043;28;20459;-68
2021/11/12 03:03:48;;;;;;;23.23;10.03;;;4.00;99.90;;;;;;4993897;28;20025;-68
2021/11/12 03:06:13;;;;;;;20.87;9.20;;;4.10;99.90;;;;;;5008260;28;20374;-68
2021/11/12 03:08:39;;;;;;;26.77;9.50;;;4.10;99.90;;;;;;4993804;28;20030;-68
2021/11/12 03:11:06;;;;;;;27.40;9.63;;;4.20;99.90;;;;;;4993920;28;20019;-68
2021/11/12 03:13:31;;;;;;;28.03;9.10;;;4.10;99.90;;;;;;5008237;28;20034;-68
2021/11/12 03:16:00;;;;;;;27.03;9.23;;;4.10;99.90;;;;;;4993451;28;20026;-68
2021/11/12 03:18:27;;;;;;;24.93;9.57;;;4.00;99.90;;;;;;5008159;28;20026;-68
2021/11/12 03:20:53;;;;;;;25.47;9.30;;;4.00;99.90;;;;;;4993604;28;20022;-68
2021/11/12 03:23:23;;;;;;;24.37;9.60;;;3.90;99.90;;;;;;5008116;28;20479;-68
2021/11/12 04:01:33;;;;;;;22.53;8.70;;;3.90;99.90;;;;;;4992812;28;20085;-68
2021/11/12 04:17:42;;;;;;;23.40;9.20;;;3.70;99.90;;;;;;5001095;28;20038;-68
2021/11/12 04:49:21;;;;;;;19.27;8.10;;;3.70;99.90;;;;;;4992816;28;20057;-68
2021/11/12 05:44:55;;;;;;;17.67;6.90;;;3.80;99.90;;;;;;4994830;28;20080;-68
2021/11/12 05:55:15;;;;;;;18.67;7.70;;;3.60;99.90;;;;;;4995398;28;20029;-68
2021/11/12 05:57:41;;;;;;;18.00;7.97;;;3.70;99.90;;;;;;5009684;28;20019;-68
2021/11/12 06:00:14;;;;;;;20.37;8.13;;;3.70;99.90;;;;;;4995143;28;20085;-68
2021/11/12 06:02:40;;;;;;;22.73;7.70;;;3.70;99.90;;;;;;4994513;28;20254;-68
2021/11/12 06:05:06;;;;;;;19.07;7.13;;;3.70;99.90;;;;;;5010088;28;20487;-67
2021/11/12 06:07:31;;;;;;;20.47;8.10;;;3.70;99.90;;;;;;4994759;28;20042;-68
2021/11/12 06:09:57;;;;;;;19.07;8.27;;;3.70;99.90;;;;;;5010028;28;20027;-68
2021/11/12 06:12:26;;;;;;;22.63;8.83;;;3.70;99.90;;;;;;4994058;28;20375;-68
2021/11/12 06:14:53;;;;;;;18.67;7.57;;;3.60;99.90;;;;;;4994439;28;20046;-68
2021/11/12 06:17:19;;;;;;;18.90;7.43;;;3.60;99.90;;;;;;4994150;28;20026;-68
2021/11/12 06:19:44;;;;;;;19.50;7.30;;;3.70;99.90;;;;;;5009302;28;20027;-68
2021/11/12 06:22:10;;;;;;;17.27;7.83;;;3.60;99.90;;;;;;4994692;28;20096;-68
2021/11/12 06:24:36;;;;;;;16.90;7.07;;;3.60;99.90;;;;;;4994414;28;20419;-68
2021/11/12 06:27:02;;;;;;;19.77;8.03;;;3.70;99.90;;;;;;5009699;28;20035;-68
2021/11/12 06:29:29;;;;;;;19.20;7.53;;;3.60;99.90;;;;;;5009116;28;20111;-68
2021/11/12 06:31:55;;;;;;;16.30;6.53;;;3.60;99.90;;;;;;5009919;28;20424;-68
2021/11/12 06:34:21;;;;;;;16.33;7.00;;;3.60;99.90;;;;;;5009516;28;20054;-68
2021/11/12 06:36:47;;;;;;;16.20;6.90;;;3.70;99.90;;;;;;4994323;28;20448;-68
2021/11/12 06:39:14;;;;;;;15.57;7.13;;;3.60;99.90;;;;;;5009764;28;20026;-68
2021/11/12 06:49:31;;;;;;;19.90;7.57;;;3.60;99.90;;;;;;4993444;28;20049;-68
2021/11/12 06:51:57;;;;;;;18.50;7.30;;;3.60;99.90;;;;;;4993886;28;20038;-68
2021/11/12 06:54:24;;;;;;;20.13;8.43;;;3.70;99.90;;;;;;4993577;28;20483;-71
2021/11/12 06:56:49;;;;;;;18.10;7.87;;;3.70;99.90;;;;;;4993992;28;20029;-68
2021/11/12 06:59:16;;;;;;;18.93;7.63;;;3.70;99.90;;;;;;5008683;28;20055;-68
2021/11/12 07:01:42;;;;;;;17.20;8.20;;;3.70;99.90;;;;;;5008085;28;20089;-68
2021/11/12 07:04:08;;;;;;;21.40;8.67;;;3.70;99.90;;;;;;5009021;28;20371;-68
2021/11/12 07:06:36;;;;;;;20.17;8.33;;;3.70;99.90;;;;;;5008123;28;20050;-68
2021/11/12 07:09:07;;;;;;;19.03;7.43;;;3.70;99.90;;;;;;4993828;28;20052;-68
2021/11/12 07:11:33;;;;;;;22.37;8.17;;;3.70;99.90;;;;;;4993327;28;20026;-69
2021/11/12 07:13:59;;;;;;;19.03;7.70;;;3.70;99.90;;;;;;5008802;28;20022;-69
2021/11/12 07:16:25;;;;;;;18.97;8.23;;;3.60;99.90;;;;;;4993050;28;20141;-69
2021/11/12 07:18:54;;;;;;;18.20;7.30;;;3.70;99.90;;;;;;4993257;28;20482;-68
2021/11/12 07:21:22;;;;;;;18.23;7.07;;;3.70;99.90;;;;;;5008570;28;20030;-69
2021/11/12 07:23:47;;;;;;;17.17;7.20;;;3.70;99.90;;;;;;5008053;28;20384;-68
2021/11/12 07:26:14;;;;;;;21.20;7.40;;;3.70;99.90;;;;;;4993145;28;20019;-68
2021/11/12 07:28:40;;;;;;;18.33;8.00;;;3.70;99.90;;;;;;4992506;28;20026;-69
2021/11/12 07:31:07;;;;;;;14.23;6.87;;;3.70;99.90;;;;;;5008346;28;20514;-68
2021/11/12 07:33:34;;;;;;;13.87;6.37;;;3.70;99.90;;;;;;5007770;28;20062;-69
2021/11/12 07:38:53;;;;;;;16.60;7.07;;;3.70;99.90;;;;;;4992801;28;20042;-68
2021/11/12 07:49:02;;;;;;;16.63;6.90;;;3.50;99.90;;;;;;4993367;28;20156;-68
2021/11/12 07:51:28;;;;;;;18.27;6.63;;;3.50;99.90;;;;;;5007869;28;20049;-69
2021/11/12 07:53:54;;;;;;;13.70;6.47;;;3.50;99.90;;;;;;5008370;28;20371;-68
2021/11/12 07:56:21;;;;;;;16.07;7.30;;;3.50;99.90;;;;;;5007926;28;20019;-69
2021/11/12 07:58:48;;;;;;;20.20;7.77;;;3.50;99.90;;;;;;4992434;28;20030;-69
2021/11/12 08:01:15;;;;;;;18.10;8.00;;;3.50;99.90;;;;;;5008013;28;20097;-69
2021/11/12 08:03:42;;;;;;;17.17;7.13;;;3.50;99.90;;;;;;4992624;28;20457;-69
2021/11/12 08:06:12;;;;;;;18.03;7.30;;;3.50;99.90;;;;;;4992910;28;20035;-69
2021/11/12 08:08:39;;;;;;;17.57;7.67;;;3.50;99.90;;;;;;4992601;28;20015;-69
2021/11/12 08:11:17;;;;;;;16.47;6.77;;;3.50;99.90;;;;;;5007334;28;20026;-69
2021/11/12 08:13:54;;;;;;;16.23;7.13;;;3.60;99.90;;;;;;5004968;28;20045;-68
2021/11/12 08:19:01;;;;;;;16.47;6.77;;;3.70;99.90;;;;;;4992592;28;20031;-69
2021/11/12 08:24:54;;;;;;;17.93;7.97;;;3.60;99.90;;;;;;4988543;28;20034;-69
2021/11/12 08:27:50;;;;;;;18.13;7.70;;;3.60;99.90;;;;;;4987964;28;20010;-68
2021/11/12 08:42:41;;;;;;;15.93;6.87;;;3.70;99.90;;;;;;4995281;28;20077;-68
2021/11/12 08:47:41;;;;;;;20.17;8.33;;;3.70;99.90;;;;;;4993473;28;20361;-68
2021/11/12 08:50:13;;;;;;;19.73;8.10;;;3.80;99.90;;;;;;5010992;28;20460;-68
2021/11/12 08:52:40;;;;;;;19.25;8.55;;;3.80;99.90;;;;;;4995365;28;20049;-68
2021/11/12 08:55:07;;;;;;;22.27;8.20;;;3.80;99.90;;;;;;4995805;28;20026;-68
2021/11/12 08:57:34;;;;;;;20.17;8.13;;;3.80;99.90;;;;;;4991098;28;20026;-68
2021/11/12 09:00:02;;;;;;;21.17;8.67;;;3.80;99.90;;;;;;4994807;28;20487;-69
2021/11/12 09:02:28;;;;;;;19.73;8.23;;;3.70;99.90;;;;;;4995567;28;20030;-68
2021/11/12 09:04:55;;;;;;;19.00;7.77;;;3.70;99.90;;;;;;4993941;28;20085;-68
2021/11/12 09:07:21;;;;;;;21.13;8.97;;;3.80;99.90;;;;;;5003017;28;20025;-69
2021/11/12 09:09:50;;;;;;;21.80;8.67;;;3.80;99.90;;;;;;5002039;28;20097;-69
2021/11/12 09:12:18;;;;;;;22.57;8.57;;;3.80;99.90;;;;;;4998992;28;20034;-68
2021/11/12 09:14:48;;;;;;;22.90;9.43;;;3.90;99.90;;;;;;4995012;28;20023;-69
2021/11/12 09:17:18;;;;;;;20.97;8.87;;;3.90;99.90;;;;;;5010987;28;20022;-68
2021/11/12 09:19:51;;;;;;;20.17;8.80;;;3.90;99.90;;;;;;4995087;28;20089;-68
2021/11/12 09:22:20;;;;;;;20.53;8.70;;;3.90;99.90;;;;;;4995890;28;20084;-68
2021/11/12 09:24:48;;;;;;;20.80;8.73;;;3.90;99.90;;;;;;4994856;28;20487;-69
2021/11/12 09:27:14;;;;;;;19.63;8.37;;;3.90;99.90;;;;;;4995525;28;20026;-69
2021/11/12 09:29:42;;;;;;;25.23;9.70;;;3.90;99.90;;;;;;5010184;28;20037;-68
2021/11/12 09:32:08;;;;;;;17.37;8.33;;;3.90;99.90;;;;;;5010425;28;20034;-68
2021/11/12 09:34:36;;;;;;;20.90;9.07;;;3.90;99.90;;;;;;4992802;28;20022;-69
2021/11/12 09:37:04;;;;;;;22.40;9.17;;;3.80;99.90;;;;;;4995055;28;20363;-69
2021/11/12 09:39:30;;;;;;;22.13;9.47;;;3.90;99.90;;;;;;4995727;28;20106;-69
2021/11/12 09:41:57;;;;;;;25.70;9.30;;;3.90;99.90;;;;;;4994107;28;20042;-72
2021/11/12 09:44:22;;;;;;;22.03;9.57;;;3.90;99.90;;;;;;4994642;28;20458;-72
2021/11/12 09:46:50;;;;;;;22.43;10.27;;;4.00;99.90;;;;;;4990039;28;20118;-73
2021/11/12 09:49:16;;;;;;;25.03;10.83;;;4.00;99.90;;;;;;5005574;28;20034;-72
2021/11/12 09:51:42;;;;;;;26.23;10.97;;;4.00;99.90;;;;;;4989337;28;20057;-72
2021/11/12 09:54:07;;;;;;;26.67;10.90;;;4.00;99.90;;;;;;4989789;28;20029;-71
2021/11/12 09:56:34;;;;;;;23.23;9.77;;;4.10;99.90;;;;;;4989680;28;20539;-72
2021/11/12 09:59:01;;;;;;;29.13;11.90;;;4.10;99.90;;;;;;4990087;28;20026;-71
2021/11/12 10:01:29;;;;;;;23.50;10.30;;;4.10;99.90;;;;;;4990365;28;20503;-72
2021/11/12 10:04:00;;;;;;;25.90;10.90;;;4.10;99.90;;;;;;4989507;28;20093;-70
2021/11/12 10:06:27;;;;;;;26.30;10.97;;;4.20;99.90;;;;;;5003709;28;20030;-72
2021/11/12 10:08:54;;;;;;;23.73;9.87;;;4.20;99.90;;;;;;4990577;28;20057;-71
2021/11/12 10:11:28;;;;;;;26.70;10.70;;;4.20;99.90;;;;;;4990819;28;20109;-72
2021/11/12 10:14:00;;;;;;;23.37;10.43;;;4.30;99.90;;;;;;5004798;28;20022;-72
2021/11/12 10:16:40;;;;;;;25.10;10.93;;;4.20;99.90;;;;;;4989497;28;20031;-72
2021/11/12 10:19:18;;;;;;;23.60;11.00;;;4.20;99.90;;;;;;4989170;28;20464;-72
2021/11/12 10:21:46;;;;;;;25.80;10.20;;;4.30;99.90;;;;;;4986634;28;20034;-72
2021/11/12 10:24:16;;;;;;;23.20;11.10;;;4.20;99.90;;;;;;4989319;28;20042;-72
2021/11/12 10:26:49;;;;;;;20.80;9.93;;;4.20;99.90;;;;;;4990212;28;20048;-74
2021/11/12 10:29:20;;;;;;;22.13;11.07;;;4.20;99.90;;;;;;4983133;28;20066;-74
2021/11/12 10:31:56;;;;;;;21.27;10.30;;;4.30;99.90;;;;;;5005257;28;20046;-73
2021/11/12 10:34:25;;;;;;;24.33;10.07;;;4.30;99.90;;;;;;4998923;28;20371;-72
2021/11/12 10:37:19;;;;;;;19.33;9.73;;;4.30;99.90;;;;;;4989902;28;20034;-72
2021/11/12 10:39:56;;;;;;;23.73;9.80;;;4.30;99.90;;;;;;4985567;28;20089;-74
2021/11/12 10:42:28;;;;;;;24.70;10.83;;;4.30;99.90;;;;;;4989044;28;20026;-77
2021/11/12 10:45:07;;;;;;;21.00;9.88;;;4.30;99.90;;;;;;4982375;28;20061;-73
2021/11/12 10:47:34;;;;;;;22.63;10.40;;;4.40;99.90;;;;;;5005105;28;20034;-73
2021/11/12 10:50:05;;;;;;;23.60;10.67;;;4.40;99.90;;;;;;4990256;28;20030;-74
2021/11/12 10:52:31;;;;;;;24.83;11.23;;;4.30;99.90;;;;;;5005691;28;20121;-73
2021/11/12 10:55:11;;;;;;;22.43;10.57;;;4.20;99.90;;;;;;4989580;28;20480;-73
2021/11/12 10:57:46;;;;;;;27.00;11.07;;;4.30;99.90;;;;;;4989575;28;20363;-73
2021/11/12 11:00:39;;;;;;;28.43;12.73;;;4.30;99.90;;;;;;4989808;28;20050;-73
2021/11/12 11:03:07;;;;;;;25.07;11.37;;;4.30;99.90;;;;;;4995682;28;20043;-73
2021/11/12 11:05:55;;;;;;;25.87;12.90;;;4.40;99.90;;;;;;4989893;28;20049;-73
2021/11/12 11:08:27;;;;;;;25.07;11.87;;;4.40;99.90;;;;;;4988837;28;20483;-72
2021/11/12 11:10:56;;;;;;;27.23;12.93;;;4.40;99.90;;;;;;5004779;28;20034;-73
2021/11/12 11:13:28;;;;;;;27.03;12.53;;;4.50;99.90;;;;;;4990093;28;20062;-73
2021/11/12 11:16:06;;;;;;;33.43;14.53;;;4.50;99.90;;;;;;4988179;28;20720;-74
2021/11/12 11:18:37;;;;;;;29.70;13.57;;;4.40;99.90;;;;;;4995788;28;20045;-74
2021/11/12 11:21:08;;;;;;;30.00;12.47;;;4.40;99.90;;;;;;4989772;28;20334;-73
2021/11/12 11:23:55;;;;;;;31.10;13.30;;;4.40;99.90;;;;;;4987593;28;20467;-74
2021/11/12 11:26:45;;;;;;;32.53;13.97;;;4.40;99.90;;;;;;4987697;28;20046;-74
2021/11/12 11:29:26;;;;;;;32.13;14.47;;;4.40;99.90;;;;;;5000621;28;20030;-74
2021/11/12 11:31:56;;;;;;;33.87;14.13;;;4.50;99.90;;;;;;4985093;28;20037;-74
2021/11/12 11:34:23;;;;;;;32.63;14.60;;;4.40;99.90;;;;;;4979736;28;20014;-73
2021/11/12 11:36:50;;;;;;;37.07;15.57;;;4.50;99.90;;;;;;4989471;28;20487;-75
2021/11/12 11:39:18;;;;;;;30.27;13.93;;;4.50;99.90;;;;;;4988268;28;20446;-74
2021/11/12 11:41:45;;;;;;;38.40;16.37;;;4.40;99.90;;;;;;4989122;28;20030;-74
2021/11/12 11:44:19;;;;;;;37.33;15.80;;;4.40;99.90;;;;;;5004807;28;20027;-74
2021/11/12 11:46:49;;;;;;;39.47;15.23;;;4.40;99.90;;;;;;4987464;28;20025;-73
2021/11/12 11:49:17;;;;;;;40.77;15.80;;;4.40;99.90;;;;;;4987860;28;20030;-74
2021/11/12 11:51:52;;;;;;;43.83;16.17;;;4.50;99.90;;;;;;5003367;28;20031;-71
2021/11/12 11:54:19;;;;;;;37.33;15.63;;;4.50;99.90;;;;;;4987383;28;20061;-72
2021/11/12 11:56:56;;;;;;;36.20;15.47;;;4.50;99.90;;;;;;4988342;28;20019;-73
2021/11/12 11:59:34;;;;;;;37.57;15.27;;;4.40;99.90;;;;;;4985356;28;20053;-72
2021/11/12 12:02:09;;;;;;;41.67;15.97;;;4.40;99.90;;;;;;4986374;28;20042;-72
2021/11/12 12:04:45;;;;;;;38.77;15.50;;;4.40;99.90;;;;;;4989695;28;20062;-70
2021/11/12 12:07:28;;;;;;;36.93;15.63;;;4.40;99.90;;;;;;4989314;28;20460;-72
2021/11/12 12:10:00;;;;;;;40.17;15.77;;;4.50;99.90;;;;;;4984298;28;20089;-71
2021/11/12 12:12:35;;;;;;;41.85;16.42;;;4.50;99.90;;;;;;4979858;28;20483;-72
2021/11/12 12:15:03;;;;;;;44.17;16.47;;;4.50;99.90;;;;;;4993091;28;20054;-72
2021/11/12 12:17:32;;;;;;;44.37;15.77;;;4.60;99.90;;;;;;4993106;28;20023;-72
2021/11/12 13:21:35;;;;;;;34.87;14.50;;;4.60;99.90;;;;;;4992261;28;20037;-71
2021/11/12 13:24:15;;;;;;;38.57;14.77;;;4.70;99.90;;;;;;4987275;28;20042;-72
2021/11/12 13:26:39;;;;;;;33.97;14.00;;;4.70;99.90;;;;;;4983411;28;20129;-72
2021/11/12 13:29:06;;;;;;;39.27;14.97;;;4.60;99.90;;;;;;4990222;28;20117;-72
2021/11/12 13:31:31;;;;;;;36.80;13.97;;;4.60;99.90;;;;;;5006770;28;20081;-72
2021/11/12 13:34:01;;;;;;;37.67;13.77;;;4.60;99.90;;;;;;4989539;28;20038;-73
2021/11/12 13:36:35;;;;;;;33.10;13.93;;;4.60;99.90;;;;;;5006757;28;20034;-74
2021/11/12 13:39:02;;;;;;;33.90;14.47;;;4.70;99.90;;;;;;4989784;28;20050;-73
2021/11/12 13:41:30;;;;;;;35.27;13.80;;;4.60;99.90;;;;;;4990203;28;20124;-73
2021/11/12 13:44:07;;;;;;;37.03;15.07;;;4.60;99.90;;;;;;4990550;28;20038;-73
2021/11/12 13:46:54;;;;;;;35.57;13.93;;;4.60;99.90;;;;;;5005078;28;20023;-73
2021/11/12 13:49:34;;;;;;;31.40;13.30;;;4.50;99.90;;;;;;4990350;28;20022;-73
2021/11/12 13:52:18;;;;;;;34.87;14.23;;;4.50;99.90;;;;;;5009505;28;20034;-74
2021/11/12 13:54:46;;;;;;;36.47;14.17;;;4.50;99.90;;;;;;5005952;28;20048;-74
2021/11/12 13:57:15;;;;;;;32.20;13.47;;;4.50;99.90;;;;;;4990047;28;20031;-74
2021/11/12 13:59:58;;;;;;;29.77;12.77;;;4.50;99.90;;;;;;4993457;28;20049;-73
2021/11/12 14:02:24;;;;;;;;;;;4.40;99.90;;;;;;4990556;28;20461;-73
2021/11/12 14:04:50;;;;;;;32.83;13.80;;;4.40;99.90;;;;;;4990865;28;19960;-73
2021/11/12 14:07:21;;;;;;;31.97;13.60;;;4.40;99.90;;;;;;4989642;28;20034;-72
2021/11/12 14:10:01;;;;;;;33.47;13.53;;;4.40;99.90;;;;;;5005661;28;20035;-73
2021/11/12 14:12:27;;;;;;;32.07;14.20;;;4.40;99.90;;;;;;4981840;28;20085;-73
2021/11/12 14:15:27;;;;;;;34.43;13.53;;;4.50;99.90;;;;;;4990759;28;20022;-73
2021/11/12 14:29:07;;;;;;;31.77;13.03;;;4.40;99.90;;;;;;4990013;28;20032;-73
2021/11/12 14:34:30;;;;;;;33.17;13.43;;;4.40;99.90;;;;;;4990498;28;20037;-71
2021/11/12 14:40:10;;;;;;;31.77;12.97;;;4.40;99.90;;;;;;4983058;28;20480;-71
2021/11/12 14:42:50;;;;;;;38.30;14.07;;;4.40;99.90;;;;;;4989108;28;20026;-72
2021/11/12 14:45:20;;;;;;;34.57;13.97;;;4.40;99.90;;;;;;5005268;28;20065;-73
2021/11/12 14:50:28;;;;;;;35.63;14.57;;;4.30;99.90;;;;;;4990128;28;20026;-72
2021/11/12 14:53:06;;;;;;;34.13;13.27;;;4.20;99.90;;;;;;4987986;28;20034;-71
2021/11/12 14:55:33;;;;;;;39.20;13.40;;;4.30;99.90;;;;;;4986305;28;20030;-72
2021/11/12 14:58:05;;;;;;;31.03;13.37;;;4.20;99.90;;;;;;5106919;27;20445;-72
2021/11/12 15:00:31;;;;;;;36.13;14.10;;;4.20;99.90;;;;;;5088483;28;20040;-72
2021/11/12 15:02:58;;;;;;;35.63;13.97;;;4.30;99.90;;;;;;5087732;28;20054;-73
2021/11/12 15:05:25;;;;;;;34.43;13.97;;;4.20;99.90;;;;;;5088028;28;20062;-72
2021/11/12 15:08:02;;;;;;;33.97;13.90;;;4.20;99.90;;;;;;5087630;28;20059;-74
2021/11/12 15:10:29;;;;;;;39.43;14.30;;;4.20;99.90;;;;;;5087649;28;20492;-71
2021/11/12 15:12:56;;;;;;;35.70;14.77;;;4.20;99.90;;;;;;5105345;28;20023;-71
2021/11/12 15:15:23;;;;;;;38.57;14.93;;;4.20;99.90;;;;;;5087957;28;20036;-74
2021/11/12 15:17:53;;;;;;;45.30;15.30;;;4.30;99.90;;;;;;5087231;28;20020;-73
2021/11/12 15:20:20;;;;;;;38.70;14.43;;;4.30;99.90;;;;;;5106080;28;20106;-73
2021/11/12 15:23:12;;;;;;;36.37;13.67;;;4.20;99.90;;;;;;5087044;28;20066;-73
2021/11/12 15:33:19;;;;;;;40.13;14.57;;;4.30;99.90;;;;;;5105496;28;20070;-75
2021/11/12 15:35:47;;;;;;;42.50;14.87;;;4.30;99.90;;;;;;5104568;28;20020;-73
2021/11/12 15:38:30;;;;;;;39.37;14.50;;;4.30;99.90;;;;;;5089232;28;20061;-71
2021/11/12 15:41:51;;;;;;;44.30;15.00;;;4.30;99.90;;;;;;5092047;28;20038;-71
2021/11/12 15:46:25;;;;;;;40.77;15.47;;;4.20;99.90;;;;;;5108868;28;20028;-74
2021/11/12 15:48:50;;;;;;;38.93;13.83;;;4.20;99.90;;;;;;5090334;28;20064;-73
2021/11/12 16:06:54;;;;;;;39.80;14.90;;;4.20;99.90;;;;;;5104749;28;20114;-73
2021/11/12 16:12:21;;;;;;;48.87;16.40;;;4.20;99.90;;;;;;5091453;28;20061;-72
2021/11/12 16:22:30;;;;;;;37.80;13.03;;;4.20;99.90;;;;;;5091854;28;20031;-73
2021/11/12 16:27:43;;;;;;;34.47;12.80;;;4.20;99.90;;;;;;5091654;28;20480;-72
2021/11/12 16:30:09;;;;;;;39.13;13.13;;;4.30;99.90;;;;;;5073337;28;20089;-72
2021/11/12 16:32:46;;;;;;;39.20;13.53;;;4.20;99.90;;;;;;5073322;28;20131;-71
2021/11/12 16:35:16;;;;;;;37.43;13.03;;;4.20;99.90;;;;;;5092029;28;20049;-71
2021/11/12 16:37:43;;;;;;;39.73;13.77;;;4.20;99.90;;;;;;5072926;28;20038;-72
2021/11/12 16:43:11;;;;;;;41.20;14.83;;;4.20;99.90;;;;;;5090912;28;20107;-72
2021/11/12 17:01:59;;;;;;;39.10;14.17;;;4.20;99.90;;;;;;5090346;28;20444;-72
2021/11/12 17:04:29;;;;;;;42.50;13.97;;;4.20;99.90;;;;;;5069259;28;20026;-72
2021/11/12 17:07:02;;;;;;;50.03;17.50;;;4.20;99.90;;;;;;5071478;28;20047;-72
2021/11/12 17:09:47;;;;;;;40.40;13.80;;;4.20;99.90;;;;;;5072816;28;20035;-72
2021/11/12 17:12:47;;;;;;;44.03;13.57;;;4.20;99.90;;;;;;5091478;28;20031;-72
2021/11/12 17:18:40;;;;;;;40.73;14.60;;;4.20;99.90;;;;;;5090117;28;20040;-73
2021/11/12 17:47:43;;;;;;;31.45;12.27;;;4.20;99.90;;;;;;5089434;28;20035;-71
2021/11/12 18:03:38;;;;;;;38.70;12.70;;;4.30;99.90;;;;;;5088384;28;20047;-73
2021/11/12 18:06:09;;;;;;;33.47;12.23;;;4.20;99.90;;;;;;5069905;28;20055;-72
2021/11/12 18:09:00;;;;;;;42.15;12.02;;;4.20;99.90;;;;;;5070638;28;20024;-73
2021/11/12 18:14:25;;;;;;;40.77;13.47;;;4.30;99.90;;;;;;5086479;28;20391;-72
2021/11/12 18:22:37;;;;;;;34.20;12.20;;;4.10;99.90;;;;;;5086508;28;20552;-73
2021/11/12 21:46:04;;;;;;;21.10;8.13;;;3.40;99.90;;;;;;5081713;28;20538;-76
2021/11/12 21:48:34;;;;;;;21.47;8.10;;;3.50;99.90;;;;;;5072565;28;20024;-76
2021/11/12 21:51:00;;;;;;;21.63;8.40;;;3.50;99.90;;;;;;5072176;28;20082;-76
2021/11/12 21:53:28;;;;;;;18.57;8.67;;;3.50;99.90;;;;;;5072529;28;20143;-75
2021/11/12 21:55:55;;;;;;;24.17;8.70;;;3.50;99.90;;;;;;5071156;28;20401;-75
2021/11/12 21:58:21;;;;;;;23.03;8.20;;;3.50;99.90;;;;;;5090025;28;20377;-75
2021/11/12 22:00:48;;;;;;;23.63;9.03;;;3.60;99.90;;;;;;5072048;28;20020;-74
2021/11/12 22:03:15;;;;;;;19.30;8.57;;;3.60;99.90;;;;;;5072514;28;20197;-76
2021/11/12 22:05:41;;;;;;;21.60;9.80;;;3.60;99.90;;;;;;5090258;28;20024;-76
2021/11/12 22:08:07;;;;;;;20.17;8.30;;;3.60;99.90;;;;;;5090126;28;20444;-74
2021/11/12 22:10:33;;;;;;;19.77;8.53;;;3.70;99.90;;;;;;5089651;28;20093;-74
2021/11/12 22:12:58;;;;;;;23.37;9.20;;;3.60;99.90;;;;;;5071111;28;20487;-75
2021/11/12 22:15:24;;;;;;;23.87;8.97;;;3.60;99.90;;;;;;5071666;28;20056;-76
2021/11/12 22:17:50;;;;;;;21.40;9.43;;;3.70;99.90;;;;;;5071793;28;20127;-75
2021/11/12 22:20:18;;;;;;;25.07;9.80;;;3.70;99.90;;;;;;5091263;28;20028;-75
2021/11/12 22:22:44;;;;;;;20.90;9.00;;;3.60;99.90;;;;;;5071538;28;20031;-76
2021/11/12 22:25:11;;;;;;;22.07;8.93;;;3.60;99.90;;;;;;5071990;28;20103;-75
2021/11/12 22:27:37;;;;;;;20.80;8.60;;;3.60;99.90;;;;;;5072336;28;20047;-75
2021/11/12 22:30:04;;;;;;;23.53;8.80;;;3.60;99.90;;;;;;5071057;28;20024;-75
2021/11/12 22:32:30;;;;;;;24.40;8.93;;;3.60;99.90;;;;;;5090147;28;20055;-75
2021/11/12 22:34:57;;;;;;;21.73;8.87;;;3.60;99.90;;;;;;5090037;28;20153;-77
2021/11/12 22:37:23;;;;;;;29.20;9.43;;;3.60;99.90;;;;;;5073394;28;20084;-75
2021/11/12 22:39:49;;;;;;;24.30;10.13;;;3.60;99.90;;;;;;5071927;28;20059;-76
2021/11/12 22:42:16;;;;;;;23.20;9.67;;;3.50;99.90;;;;;;5073473;28;20318;-75
2021/11/12 22:44:44;;;;;;;23.00;9.67;;;3.50;99.90;;;;;;5072452;28;20048;-75
2021/11/12 22:47:11;;;;;;;24.60;9.13;;;3.50;99.90;;;;;;5089412;28;20020;-75
2021/11/12 22:49:36;;;;;;;24.33;9.30;;;3.50;99.90;;;;;;5072508;28;20032;-80
2021/11/12 22:52:03;;;;;;;21.30;9.20;;;3.60;99.90;;;;;;5071954;28;20031;-79
2021/11/12 22:54:33;;;;;;;29.70;10.20;;;3.60;99.90;;;;;;5072689;28;20028;-80
2021/11/12 22:56:59;;;;;;;22.73;8.90;;;3.60;99.90;;;;;;5071396;28;20048;-79
2021/11/12 22:59:25;;;;;;;20.27;8.67;;;3.70;99.90;;;;;;5073744;28;20021;-80
2021/11/12 23:01:52;;;;;;;25.70;9.83;;;3.60;99.90;;;;;;5072231;28;20184;-79
2021/11/12 23:04:20;;;;;;;23.80;10.63;;;3.70;99.90;;;;;;5073089;28;20681;-80
2021/11/12 23:06:47;;;;;;;23.73;10.07;;;3.60;99.90;;;;;;5072954;28;20054;-78